KCHS/CHS METAR and TAF weather

Enter ICAO airport designator
Station Type Date Time Source
KCHS METAR 2019/11/18 10:56 UTC NOAA

KCHS 181056Z 35005KT 10SM OVC013 08/06 A2986 RMK AO2 SLP111 T00830056 $


Station Type Date Time Source
KCHS Decoded METAR 2019/11/18 10:56 UTC NOAA

CHARLESTON INT'L AIRPORT, SC, United States (KCHS) 32-54N 080-02W 13M
Nov 18, 2019 - 05:56 AM EST / 2019.11.18 1056 UTC
Wind: from the N (350 degrees) at 6 MPH (5 KT):0
Visibility: 10 mile(s):0
Sky conditions: overcast
Temperature: 46.9 F (8.3 C)
Dew Point: 42.1 F (5.6 C)
Relative Humidity: 83%
Pressure (altimeter): 29.86 in. Hg (1011 hPa)
ob: KCHS 181056Z 35005KT 10SM OVC013 08/06 A2986 RMK AO2 SLP111 T00830056
cycle: 11

Station Type Date Time Source
KCHS TAF 2019/11/18 12:29 UTC NOAA

TAF KCHS 181121Z 1812/1912 34005KT P6SM VCSH BKN015
TEMPO 1814/1816 SCT015 BKN025
FM181600 31006KT P6SM BKN028
FM181800 31005KT P6SM BKN050
FM190000 VRB03KT P6SM BKN200

Example: see airport list